Latest Coastal Weather Observations for Evans Head

IDN60701

Issued at 11:32 pm EDT Tuesday 3 March 2015 (issued every 10 minutes, with the page automatically refreshed every 10 minutes)

About coastal observations | Map of coastal stations | Coastal observations for NSW | Marine services | Other Formats
Station Details ID: 058212 Name: EVANS HEAD RAAF BOMBING RANGE AWS Lat: -29.18 Lon: 153.40 Height: 62.5 m
Data from the previous 72 hours. | See also: Recent months at Evans Head
Date/Time
EDT
Temp

°C
Wind Pressure Rain
since 9am
mm
Weather Cloud Vis
km
Sea
Height
m
Swell
Dir
 
Speed
knots
Gust
knots
hPa Trend Height
m
Period
s
Dir
03/11:30pm 21.3 NNE 3 4 1015.6 - 0.0 - - - - - - -
03/11:00pm 22.2 E 4 6 1015.8 - 0.0 - - - - - - -
03/10:30pm 22.1 ESE 5 6 1015.9 - 0.0 - - - - - - -
03/10:00pm 22.4 ESE 5 8 1015.7 - 0.0 - - - - - - -
03/09:30pm 22.4 ESE 6 8 1015.7 - 0.0 - - - - - - -
03/09:00pm 22.5 ESE 5 7 1015.5 - 0.0 - - - - - - -
03/08:30pm 22.6 SE 6 8 1015.0 - 0.0 - - - - - - -
03/08:00pm 22.5 ESE 6 9 1014.6 - 0.0 - - - - - - -
03/07:30pm 22.6 ESE 5 8 1014.4 - 0.0 - - - - - - -
03/07:00pm 23.3 ESE 5 7 1014.2 - 0.0 - - - - - - -
03/06:30pm 24.1 ESE 6 8 1013.9 - 0.0 - - - - - - -
03/06:00pm 24.8 ESE 7 10 1013.7 - 0.0 - - - - - - -
03/05:30pm 25.3 ESE 8 10 1013.5 - 0.0 - - - - - - -
03/05:00pm 25.9 SE 8 11 1013.5 - 0.0 - - - - - - -
03/04:30pm 26.0 SE 7 10 1013.6 - 0.0 - - - - - - -
03/04:00pm 26.3 ESE 8 11 1013.6 - 0.0 - - - - - - -
03/03:30pm 26.4 SE 9 12 1013.9 - 0.0 - - - - - - -
03/03:00pm 26.7 SE 8 12 1014.1 - 0.0 - - - - - - -
03/02:30pm 27.0 SE 8 11 1014.5 - 0.0 - - - - - - -
03/02:00pm 27.1 SSE 8 11 1014.8 - 0.0 - - - - - - -
03/01:30pm 27.0 SSE 9 11 1015.1 - 0.0 - - - - - - -
03/01:00pm 26.2 SSE 8 11 1015.3 - 0.0 - - - - - - -
03/12:30pm 26.6 SSE 7 10 1015.6 - 0.0 - - - - - - -
03/12:00pm 26.8 SSE 7 11 1016.1 - 0.0 - - - - - - -
03/11:30am 25.9 S 7 9 1016.3 - 0.0 - - - - - - -
03/11:00am 26.0 S 7 9 1016.3 - 0.0 - - - - - - -
03/10:30am 25.7 S 7 10 1016.3 - 0.0 - - - - - - -
03/10:00am 25.3 S 8 10 1016.2 - 0.0 - - - - - - -
03/09:30am 23.8 SSW 5 8 1016.1 - 0.0 - - - - - - -
03/09:00am 22.9 SSW 5 8 1015.9 - 3.8 - - - - - - -
03/08:30am 22.3 SW 6 9 1015.8 - 3.8 - - - - - - -
03/08:00am 20.9 WSW 6 9 1015.6 - 3.8 - - - - - - -
03/07:30am 20.1 W 6 8 1015.5 - 3.8 - - - - - - -
03/07:00am 19.8 WSW 6 8 1015.1 - 3.8 - - - - - - -
03/06:30am 19.8 WSW 7 9 1014.7 - 3.8 - - - - - - -
03/06:00am 19.8 WSW 7 10 1014.5 - 3.8 - - - - - - -
03/05:30am 19.8 WSW 6 9 1014.5 - 3.8 - - - - - - -
03/05:00am 19.9 WSW 7 10 1014.4 - 3.8 - - - - - - -
03/04:30am 20.1 WSW 7 10 1014.4 - 3.8 - - - - - - -
03/04:00am 20.1 WSW 7 10 1014.4 - 3.8 - - - - - - -
03/03:30am 20.0 WSW 7 9 1014.5 - 3.8 - - - - - - -
03/03:00am 20.3 WSW 8 11 1014.9 - 3.8 Recent precip. - - - - - -
03/02:30am 20.3 WSW 7 9 1015.2 - 3.8 - - - - - - -
03/02:00am 20.4 WSW 8 11 1015.6 - 3.6 - - - - - - -
03/01:30am 20.6 W 7 10 1015.8 - 3.6 - - - - - - -
03/01:00am 21.2 SW 4 7 1015.8 - 3.6 - - - - - - -
03/12:30am 22.4 S 8 12 1016.0 - 3.6 - - - - - - -
03/12:00am 21.9 S 9 11 1016.1 - 3.6 - - - - - - -
 
Date/Time
EDT
Temp

°C
Wind Pressure Rain
since 9am
mm
Weather Cloud Vis
km
Sea
Height
m
Swell
Dir
 
Speed
knots
Gust
knots
hPa Trend Height
m
Period
s
Dir
02/11:30pm 22.0 SSE 9 11 1016.2 - 3.6 - - - - - - -
02/11:00pm 22.3 SSE 9 13 1016.2 - 3.6 - - - - - - -
02/10:30pm 22.2 S 10 13 1016.2 - 3.6 - - - - - - -
02/10:00pm 22.1 S 9 14 1016.3 - 3.6 - - - - - - -
02/09:30pm 21.8 SW 5 14 1016.1 - 3.6 - - - - - - -
02/09:00pm 21.9 W 6 9 1015.6 - 1.4 Rain - - - - - -
02/08:30pm 21.9 SW 7 11 1015.3 - 0.2 - - - - - - -
02/08:00pm 21.9 SW 6 8 1015.0 - 0.2 - - - - - - -
02/07:30pm 21.9 SW 7 11 1014.6 - 0.2 - - - - - - -
02/07:00pm 22.3 SW 9 12 1014.5 - 0.0 - - - - - - -
02/06:30pm 22.6 SW 8 11 1014.2 - 0.0 - - - - - - -
02/06:00pm 23.3 S 8 15 1013.9 - 0.0 - - - - - - -
02/05:30pm 24.1 SSW 9 15 1013.6 - 0.0 - - - - - - -
02/05:00pm 22.4 SSW 13 19 1013.7 - 0.0 - - - - - - -
02/04:30pm 23.4 SSW 18 26 1013.4 - 0.0 - - - - - - -
02/04:00pm 23.6 SSW 19 27 1013.2 - 0.0 - - - - - - -
02/03:30pm 23.5 SSW 18 26 1013.4 - 0.0 - - - - - - -
02/03:00pm 24.4 SSW 20 28 1013.6 - 0.0 - - - - - - -
02/02:30pm 25.8 SSW 21 30 1013.7 - 0.0 - - - - - - -
02/02:15pm 26.0 SSW 20 31 1013.9 - 0.0 - - - - - - -
02/02:00pm 26.3 SSW 19 26 1013.9 - 0.0 - - - - - - -
02/01:31pm 25.2 SSW 18 28 1014.2 - 0.0 - - - - - - -
02/01:30pm 25.1 SSW 19 28 1014.2 - 0.0 - - - - - - -
02/01:00pm 25.3 SSW 19 27 1014.5 - 0.0 - - - - - - -
02/12:30pm 26.3 SSW 19 25 1014.6 - 0.0 - - - - - - -
02/12:00pm 25.7 SSW 18 26 1014.6 - 0.0 - - - - - - -
02/11:30am 25.9 SSW 18 25 1014.8 - 0.0 - - - - - - -
02/11:00am 25.5 SSW 19 26 1014.8 - 0.0 - - - - - - -
02/10:43am 25.3 SSW 18 28 1014.8 - 0.0 - - - - - - -
02/10:30am 25.4 SSW 17 24 1014.7 - 0.0 - - - - - - -
02/10:00am 25.2 SSW 15 21 1014.5 - 0.0 - - - - - - -
02/09:30am 24.5 SSW 14 22 1014.2 - 0.0 - - - - - - -
02/09:00am 22.5 SSW 12 18 1013.7 - 2.2 - - - - - - -
02/08:30am 22.9 SSW 12 17 1013.4 - 2.2 - - - - - - -
02/08:00am 22.3 SSW 9 12 1013.0 - 2.2 - - - - - - -
02/07:30am 22.3 S 11 18 1012.8 - 2.2 - - - - - - -
02/07:00am 21.5 SSW 7 8 1012.6 - 2.2 - - - - - - -
02/06:30am 21.9 SSW 8 11 1012.4 - 2.2 - - - - - - -
02/06:00am 21.6 SE 8 11 1012.2 - 2.2 - - - - - - -
02/05:30am 21.4 SSE 12 18 1011.6 - 2.2 - - - - - - -
02/05:00am 22.0 SSE 14 21 1010.9 - 2.2 - - - - - - -
02/04:30am 22.4 SSW 13 22 1010.7 - 2.2 - - - - - - -
02/04:00am 22.2 SW 9 13 1010.6 - 2.2 - - - - - - -
02/03:30am 22.1 WSW 7 10 1010.5 - 2.2 - - - - - - -
02/03:00am 21.9 W 5 7 1010.3 - 2.2 - - - - - - -
02/02:30am 22.1 SW 6 9 1010.4 - 2.2 - - - - - - -
02/02:00am 22.1 W 5 5 1010.3 - 2.2 - - - - - - -
02/01:30am 22.4 W 5 7 1010.5 - 2.2 - - - - - - -
02/01:00am 22.2 WSW 4 6 1010.7 - 2.2 - - - - - - -
02/12:30am 22.1 WSW 5 6 1010.8 - 2.2 - - - - - - -
02/12:00am 21.9 NNW 3 5 1010.5 - 2.2 - - - - - - -
 
Date/Time
EDT
Temp

°C
Wind Pressure Rain
since 9am
mm
Weather Cloud Vis
km
Sea
Height
m
Swell
Dir
 
Speed
knots
Gust
knots
hPa Trend Height
m
Period
s
Dir
01/11:30pm 22.0 N 4 5 1010.4 - 2.2 - - - - - - -
01/11:00pm 22.2 N 6 9 1010.3 - 2.2 - - - - - - -
01/10:30pm 22.3 N 7 10 1010.1 - 2.2 - - - - - - -
01/10:00pm 22.3 N 7 9 1010.0 - 2.0 - - - - - - -
01/09:30pm 22.4 NNE 6 10 1009.3 - 2.0 - - - - - - -
01/09:00pm 22.6 NNE 7 10 1008.9 - 2.0 - - - - - - -
01/08:30pm 22.7 N 11 16 1007.8 - 2.0 - - - - - - -
01/08:00pm 22.9 N 9 15 1007.8 - 2.0 - - - - - - -
01/07:30pm 23.0 NNE 10 15 1007.7 - 2.0 - - - - - - -
01/07:00pm 23.2 NNE 9 15 1008.0 - 1.2 - - - - - - -
01/06:30pm 24.2 NNE 9 14 1007.8 - 0.0 - - - - - - -
01/06:00pm 24.6 NE 10 16 1007.4 - 0.0 - - - - - - -
01/05:30pm 24.9 NE 10 16 1007.1 - 0.0 - - - - - - -
01/05:00pm 25.7 NE 10 20 1007.1 - 0.0 - - - - - - -
01/04:30pm 27.1 NNE 10 16 1007.0 - 0.0 - - - - - - -
01/04:00pm 29.1 NNE 10 16 1007.1 - 0.0 - - - - - - -
01/03:30pm 28.7 NE 12 17 1007.5 - 0.0 - - - - - - -
01/03:00pm 29.7 NE 10 17 1007.9 - 0.0 - - - - - - -
01/02:30pm 30.0 NE 9 15 1008.2 - 0.0 - - - - - - -
01/02:00pm 29.5 NE 9 14 1008.6 - 0.0 - - - - - - -
01/01:30pm 29.2 ENE 9 15 1008.9 - 0.0 - - - - - - -
01/01:00pm 28.2 E 8 13 1009.2 - 0.0 - - - - - - -
01/12:30pm 31.0 N 5 10 1009.8 - 0.0 - - - - - - -
01/12:00pm 31.8 N 7 11 1010.2 - 0.0 - - - - - - -
01/11:30am 31.2 N 5 9 1010.6 - 0.0 - - - - - - -
01/11:00am 30.0 N 6 11 1010.9 - 0.0 - - - - - - -
01/10:30am 29.1 N 7 11 1010.8 - 0.0 - - - - - - -
01/10:00am 28.2 NNW 6 10 1010.8 - 0.0 - - - - - - -
01/09:30am 27.4 NNW 6 10 1010.8 - 0.0 - - - - - - -
01/09:00am 26.1 N 6 8 1010.7 - 0.0 - - - - - - -
01/08:30am 24.8 N 6 10 1010.7 - 0.0 - - - - - - -
01/08:00am 22.5 N 5 8 1010.4 - 0.0 - - - - - - -
01/07:30am 21.2 N 6 8 1010.3 - 0.0 - - - - - - -
01/07:00am 20.0 N 6 8 1010.2 - 0.0 - - - - - - -
01/06:30am 20.0 N 4 5 1009.9 - 0.0 - - - - - - -
01/06:00am 20.0 N 5 6 1009.7 - 0.0 - - - - - - -
01/05:30am 20.2 N 4 5 1009.4 - 0.0 - - - - - - -
01/05:00am 20.2 N 5 7 1009.2 - 0.0 - - - - - - -
01/04:30am 20.4 N 5 7 1009.3 - 0.0 - - - - - - -
01/04:00am 20.6 N 5 6 1009.6 - 0.0 - - - - - - -
01/03:30am 20.8 N 5 7 1009.6 - 0.0 - - - - - - -
01/03:00am 21.2 N 5 7 1010.0 - 0.0 - - - - - - -
01/02:30am 21.2 N 6 8 1010.0 - 0.0 - - - - - - -
01/02:00am 21.6 N 6 7 1010.3 - 0.0 - - - - - - -
01/01:30am 22.0 N 6 9 1010.6 - 0.0 - - - - - - -
01/01:00am 21.9 N 7 9 1011.0 - 0.0 - - - - - - -
01/12:30am 22.1 N 8 11 1011.1 - 0.0 - - - - - - -
01/12:00am 22.2 N 7 9 1011.0 - 0.0 - - - - - - -

Other Formats:

Comma delimited format used in spreadsheet applications
http://www.bom.gov.au/fwo/IDN60701/IDN60701.94598.axf

JavaScript Object Notation format (JSON) in row-major order
http://www.bom.gov.au/fwo/IDN60701/IDN60701.94598.json